Time;durP1;ratioP1;P1;durP2;ratioP2;P2;SDS_P1;SDS_P2;PMS_P1;PMS_P2;Temp;Humidity;BMP_temperature;BMP_pressure;BME280_temperature;BME280_humidity;BME280_pressure;Samples;Min_cycle;Max_cycle;Signal;HPM_P1;HPM_P2
2022/07/14 00:01:04;;;;;;;3.37;1.83;;;22.80;63.30;;;;;;5050355;28;20278;-81
2022/07/14 00:03:32;;;;;;;5.20;1.93;;;22.70;62.60;;;;;;5076117;28;20202;-80
2022/07/14 00:05:59;;;;;;;3.13;1.63;;;22.70;62.80;;;;;;5057833;28;20198;-82
2022/07/14 00:08:26;;;;;;;2.60;2.10;;;22.70;62.70;;;;;;5059243;28;20680;-81
2022/07/14 00:10:53;;;;;;;4.70;2.03;;;22.60;62.80;;;;;;5076626;28;20271;-80
2022/07/14 00:13:20;;;;;;;2.10;1.80;;;22.60;62.70;;;;;;5075746;28;20289;-82
2022/07/14 00:15:48;;;;;;;2.60;1.80;;;22.50;63.00;;;;;;5077223;28;20198;-81
2022/07/14 00:18:15;;;;;;;4.20;1.90;;;22.50;63.10;;;;;;5085050;28;20213;-81
2022/07/14 00:20:43;;;;;;;2.27;1.90;;;22.40;62.90;;;;;;5078894;28;20201;-81
2022/07/14 00:23:10;;;;;;;2.67;2.10;;;22.40;62.50;;;;;;5059106;28;20202;-80
2022/07/14 00:25:37;;;;;;;8.57;2.00;;;22.40;62.60;;;;;;5077869;28;20246;-81
2022/07/14 00:28:04;;;;;;;2.33;1.90;;;22.40;63.20;;;;;;5061788;28;20292;-81
2022/07/14 00:30:32;;;;;;;21.60;2.50;;;22.30;63.70;;;;;;5068122;28;20319;-81
2022/07/14 00:32:59;;;;;;;3.77;1.73;;;22.30;64.00;;;;;;5052604;28;20199;-81
2022/07/14 00:35:27;;;;;;;2.00;1.80;;;22.20;64.00;;;;;;5074878;28;20223;-82
2022/07/14 00:37:55;;;;;;;4.23;2.10;;;22.20;63.90;;;;;;5084098;28;20273;-82
2022/07/14 00:40:22;;;;;;;7.73;2.20;;;22.10;64.10;;;;;;5070385;28;20220;-82
2022/07/14 00:42:50;;;;;;;6.13;2.33;;;22.10;64.70;;;;;;5085467;28;20217;-81
2022/07/14 00:45:20;;;;;;;3.73;2.07;;;22.10;65.00;;;;;;5077637;28;20226;-79
2022/07/14 00:47:48;;;;;;;6.43;2.40;;;22.10;64.80;;;;;;5078055;28;20252;-79
2022/07/14 00:50:17;;;;;;;6.70;2.10;;;22.00;65.20;;;;;;5078243;28;20194;-79
2022/07/14 00:52:47;;;;;;;3.20;2.67;;;22.00;65.80;;;;;;5071266;28;20507;-80
2022/07/14 00:55:15;;;;;;;3.77;2.47;;;22.00;66.70;;;;;;5072269;28;20210;-79
2022/07/14 00:57:43;;;;;;;7.27;2.30;;;21.90;67.20;;;;;;5082045;28;20206;-79
2022/07/14 01:00:12;;;;;;;6.23;2.17;;;21.90;67.50;;;;;;5082906;28;20204;-79
2022/07/14 01:02:42;;;;;;;4.00;1.97;;;21.80;67.10;;;;;;5082760;28;20206;-80
2022/07/14 01:05:10;;;;;;;5.37;2.23;;;21.70;67.20;;;;;;5081033;28;20227;-79
2022/07/14 01:07:37;;;;;;;3.97;2.53;;;21.70;66.60;;;;;;5065864;28;20217;-80
2022/07/14 01:10:06;;;;;;;2.87;2.37;;;21.60;66.80;;;;;;5073686;28;20278;-80
2022/07/14 01:12:34;;;;;;;1.90;1.80;;;21.50;66.90;;;;;;5082131;28;20197;-79
2022/07/14 01:15:02;;;;;;;5.93;2.90;;;21.50;67.00;;;;;;5081086;28;20206;-79
2022/07/14 01:17:31;;;;;;;15.50;2.57;;;21.40;67.10;;;;;;5064853;28;20239;-79
2022/07/14 01:19:58;;;;;;;4.17;2.57;;;21.40;67.40;;;;;;5075918;28;20209;-79
2022/07/14 01:22:26;;;;;;;4.53;2.77;;;21.40;67.20;;;;;;5079100;28;20205;-81
2022/07/14 01:24:53;;;;;;;6.67;2.30;;;21.30;66.90;;;;;;5074272;28;20201;-79
2022/07/14 01:27:20;;;;;;;3.50;1.80;;;21.30;66.40;;;;;;5064417;28;20308;-79
2022/07/14 01:29:47;;;;;;;7.63;2.47;;;21.20;66.20;;;;;;5076056;28;20304;-79
2022/07/14 01:32:15;;;;;;;5.63;2.30;;;21.20;66.40;;;;;;5056367;28;20282;-79
2022/07/14 01:34:42;;;;;;;5.77;2.33;;;21.20;67.10;;;;;;5068091;28;20592;-79
2022/07/14 01:37:10;;;;;;;8.57;2.23;;;21.10;67.80;;;;;;5080277;28;20303;-81
2022/07/14 01:39:37;;;;;;;5.27;2.10;;;21.10;68.30;;;;;;5076478;28;20516;-79
2022/07/14 01:42:05;;;;;;;3.20;2.30;;;21.10;68.40;;;;;;5065981;28;20209;-80
2022/07/14 01:44:33;;;;;;;4.53;2.07;;;21.10;68.30;;;;;;5075262;28;20234;-80
2022/07/14 01:47:01;;;;;;;6.57;2.70;;;21.10;67.70;;;;;;5071033;28;20562;-79
2022/07/14 01:49:28;;;;;;;7.63;2.30;;;21.10;67.30;;;;;;5073369;28;20202;-79
2022/07/14 01:51:57;;;;;;;4.90;2.40;;;21.10;67.90;;;;;;5064364;28;20565;-80
2022/07/14 01:54:27;;;;;;;5.27;2.23;;;21.10;69.10;;;;;;5059100;28;20583;-79
2022/07/14 01:56:55;;;;;;;8.10;2.40;;;21.00;69.20;;;;;;5079070;28;20288;-80
2022/07/14 01:59:22;;;;;;;2.40;2.20;;;21.00;68.60;;;;;;5064946;28;20227;-80
2022/07/14 02:01:49;;;;;;;3.37;2.00;;;21.00;68.40;;;;;;5078996;28;20205;-79
2022/07/14 02:04:19;;;;;;;5.07;2.50;;;20.90;68.60;;;;;;5064723;28;20256;-79
2022/07/14 02:06:49;;;;;;;7.23;2.37;;;20.90;68.80;;;;;;5080899;28;20535;-79
2022/07/14 02:12:16;;;;;;;6.20;2.30;;;20.90;68.70;;;;;;5074430;28;20208;-80
2022/07/14 02:14:44;;;;;;;5.60;2.40;;;20.80;68.90;;;;;;5061136;28;20301;-79
2022/07/14 02:17:12;;;;;;;4.93;2.20;;;20.80;69.00;;;;;;5075042;28;20206;-79
2022/07/14 02:19:40;;;;;;;6.27;2.70;;;20.80;69.70;;;;;;5077608;28;20639;-79
2022/07/14 02:22:07;;;;;;;2.60;2.40;;;20.80;69.50;;;;;;5080457;28;20201;-79
2022/07/14 02:24:35;;;;;;;3.70;2.60;;;20.80;69.40;;;;;;5061057;28;20258;-79
2022/07/14 02:27:03;;;;;;;2.90;2.50;;;20.70;69.60;;;;;;5060702;28;20251;-80
2022/07/14 02:29:31;;;;;;;3.60;2.50;;;20.70;69.40;;;;;;5057047;28;20228;-80
2022/07/14 02:32:00;;;;;;;5.33;2.27;;;20.70;69.20;;;;;;5075467;28;20209;-79
2022/07/14 02:34:28;;;;;;;5.70;2.73;;;20.70;69.40;;;;;;5076190;28;20308;-80
2022/07/14 02:36:55;;;;;;;3.57;2.23;;;20.60;69.50;;;;;;5070532;28;20198;-80
2022/07/14 02:39:22;;;;;;;5.03;2.17;;;20.60;69.60;;;;;;5077085;28;20204;-79
2022/07/14 02:41:50;;;;;;;5.93;2.27;;;20.60;69.70;;;;;;5069848;28;20204;-80
2022/07/14 02:44:18;;;;;;;4.40;2.00;;;20.60;69.50;;;;;;5057372;28;20707;-79
2022/07/14 02:46:45;;;;;;;8.17;2.20;;;20.60;69.50;;;;;;5082295;28;20201;-79
2022/07/14 02:49:13;;;;;;;2.13;2.00;;;20.60;70.00;;;;;;5080732;28;20307;-79
2022/07/14 02:51:42;;;;;;;3.00;2.33;;;20.60;70.30;;;;;;5079182;28;20200;-80
2022/07/14 02:54:11;;;;;;;3.53;2.27;;;20.60;70.00;;;;;;5074947;28;20210;-79
2022/07/14 02:56:38;;;;;;;2.90;2.13;;;20.60;69.40;;;;;;5058378;28;20227;-79
2022/07/14 02:59:07;;;;;;;2.20;2.00;;;20.60;69.00;;;;;;5076917;28;20548;-81
2022/07/14 03:01:38;;;;;;;5.03;2.20;;;20.60;69.00;;;;;;5061772;28;20209;-79
2022/07/14 03:04:08;;;;;;;4.77;1.97;;;20.60;69.10;;;;;;5061187;28;20212;-80
2022/07/14 03:06:37;;;;;;;3.87;2.30;;;20.60;69.30;;;;;;5057527;28;20595;-80
2022/07/14 03:09:06;;;;;;;2.93;1.90;;;20.60;69.20;;;;;;5069715;28;20216;-80
2022/07/14 03:11:34;;;;;;;3.37;1.80;;;20.60;69.90;;;;;;5079105;28;20223;-79
2022/07/14 03:14:01;;;;;;;5.83;2.13;;;20.50;69.20;;;;;;5060754;28;20227;-80
2022/07/14 03:16:30;;;;;;;1.87;1.77;;;20.60;69.20;;;;;;5070319;28;20196;-79
2022/07/14 03:19:04;;;;;;;3.27;1.87;;;20.50;69.40;;;;;;5076677;28;20236;-79
2022/07/14 03:21:32;;;;;;;2.67;1.67;;;20.50;69.50;;;;;;5057779;28;20293;-79
2022/07/14 03:24:01;;;;;;;5.00;2.17;;;20.50;69.60;;;;;;5078097;28;20210;-79
2022/07/14 03:26:31;;;;;;;2.43;2.20;;;20.40;69.60;;;;;;5076861;28;20256;-80
2022/07/14 03:28:58;;;;;;;2.07;1.80;;;20.40;69.40;;;;;;5072751;28;20267;-80
2022/07/14 03:31:26;;;;;;;2.97;1.90;;;20.40;69.40;;;;;;5076258;28;20220;-80
2022/07/14 03:33:55;;;;;;;2.30;1.93;;;20.40;69.80;;;;;;5067148;28;20209;-81
2022/07/14 03:36:23;;;;;;;2.87;2.20;;;20.30;69.90;;;;;;5077918;28;20292;-78
2022/07/14 03:38:51;;;;;;;2.63;2.30;;;20.30;69.90;;;;;;5074654;28;20219;-79
2022/07/14 03:41:19;;;;;;;6.77;2.50;;;20.30;70.40;;;;;;5060777;28;20240;-79
2022/07/14 03:43:46;;;;;;;2.87;2.33;;;20.30;71.00;;;;;;5058797;28;20208;-79
2022/07/14 03:46:17;;;;;;;6.20;2.67;;;20.30;71.40;;;;;;5070090;28;20224;-81
2022/07/14 03:48:54;;;;;;;2.93;2.40;;;20.20;71.30;;;;;;5073108;28;20225;-79
2022/07/14 03:51:22;;;;;;;4.43;2.37;;;20.20;71.30;;;;;;5076082;28;20667;-79
2022/07/14 03:53:49;;;;;;;5.17;2.13;;;20.20;71.80;;;;;;5081186;28;20212;-79
2022/07/14 03:56:18;;;;;;;3.77;2.00;;;20.20;71.60;;;;;;5076203;28;20201;-80
2022/07/14 03:58:47;;;;;;;5.33;2.03;;;20.10;71.10;;;;;;5077251;28;20204;-79
2022/07/14 04:01:19;;;;;;;4.80;2.57;;;20.00;70.70;;;;;;5053645;28;20218;-80
2022/07/14 04:03:49;;;;;;;2.60;2.40;;;20.00;70.90;;;;;;5080187;28;20546;-79
2022/07/14 04:06:17;;;;;;;4.17;2.20;;;20.00;71.00;;;;;;5080233;28;20224;-80
2022/07/14 04:08:46;;;;;;;4.43;2.47;;;20.00;71.70;;;;;;5077955;28;20235;-80
2022/07/14 04:11:16;;;;;;;3.40;2.40;;;20.00;72.20;;;;;;5064539;28;20220;-79
2022/07/14 04:13:45;;;;;;;5.53;2.50;;;20.00;72.60;;;;;;5074899;28;20212;-80
2022/07/14 04:16:14;;;;;;;5.17;2.90;;;20.00;72.90;;;;;;5061115;28;20212;-79
2022/07/14 04:18:47;;;;;;;5.40;2.63;;;20.00;72.90;;;;;;5071117;28;20219;-78
2022/07/14 04:21:14;;;;;;;2.53;2.00;;;20.10;73.20;;;;;;5073377;28;20684;-79
2022/07/14 04:23:43;;;;;;;4.13;2.20;;;20.20;73.20;;;;;;5064375;28;20221;-79
2022/07/14 04:26:11;;;;;;;2.27;1.90;;;20.20;73.00;;;;;;5075879;28;20631;-81
2022/07/14 04:28:40;;;;;;;4.07;2.30;;;20.30;72.80;;;;;;5061909;28;20236;-79
2022/07/14 04:31:08;;;;;;;3.40;3.00;;;20.40;72.40;;;;;;5079429;28;20237;-80
2022/07/14 04:33:39;;;;;;;3.67;2.43;;;20.40;72.00;;;;;;5093034;28;20211;-79
2022/07/14 04:36:09;;;;;;;5.63;2.40;;;20.50;71.80;;;;;;5059990;28;20221;-80
2022/07/14 04:38:37;;;;;;;5.07;2.77;;;20.60;71.50;;;;;;5056037;28;20553;-79
2022/07/14 04:41:05;;;;;;;2.00;1.80;;;20.70;71.30;;;;;;5063110;28;20641;-79
2022/07/14 04:43:37;;;;;;;2.40;2.23;;;20.80;71.10;;;;;;5078503;28;20209;-80
2022/07/14 04:46:08;;;;;;;2.80;2.40;;;20.80;70.80;;;;;;5080890;28;20206;-80
2022/07/14 04:54:19;;;;;;;3.00;2.73;;;21.00;70.60;;;;;;5080283;28;20684;-80
2022/07/14 04:57:08;;;;;;;5.47;2.67;;;21.10;70.80;;;;;;5063570;28;20229;-79
2022/07/14 04:59:44;;;;;;;4.00;2.57;;;21.20;71.10;;;;;;5062373;28;20201;-79
2022/07/14 05:02:13;;;;;;;5.67;2.70;;;21.20;71.20;;;;;;5080219;28;20204;-80
2022/07/14 05:04:41;;;;;;;3.50;2.37;;;21.40;71.30;;;;;;5061358;28;20210;-80
2022/07/14 05:07:09;;;;;;;3.33;2.40;;;21.50;71.10;;;;;;5055460;28;20238;-79
2022/07/14 05:09:42;;;;;;;3.13;2.10;;;21.70;70.60;;;;;;5072736;28;20313;-79
2022/07/14 05:12:13;;;;;;;2.30;1.77;;;21.80;70.20;;;;;;5071854;28;20256;-80
2022/07/14 05:14:42;;;;;;;2.20;2.00;;;21.90;69.70;;;;;;5059298;28;20213;-80
2022/07/14 05:17:11;;;;;;;1.97;1.77;;;22.00;68.70;;;;;;5078831;28;20284;-79
2022/07/14 05:19:51;;;;;;;3.43;1.63;;;22.10;67.80;;;;;;5078288;28;20538;-79
2022/07/14 05:22:19;;;;;;;4.63;1.77;;;22.20;66.90;;;;;;5079048;28;20205;-79
2022/07/14 05:24:47;;;;;;;5.40;1.93;;;22.30;66.20;;;;;;5081568;28;20212;-80
2022/07/14 05:27:14;;;;;;;3.17;1.57;;;22.30;65.80;;;;;;5071279;28;20285;-80
2022/07/14 05:29:44;;;;;;;3.90;1.60;;;22.40;65.20;;;;;;5081418;28;20226;-79
2022/07/14 05:32:12;;;;;;;3.47;1.60;;;22.60;64.60;;;;;;5058553;28;20593;-81
2022/07/14 05:34:44;;;;;;;5.50;1.93;;;22.70;64.20;;;;;;5071776;28;20199;-79
2022/07/14 05:37:15;;;;;;;1.77;1.63;;;23.00;63.70;;;;;;5080947;28;20292;-80
2022/07/14 05:39:43;;;;;;;1.73;1.60;;;23.20;63.00;;;;;;5060489;28;20236;-80
2022/07/14 05:42:11;;;;;;;3.27;1.63;;;23.50;62.40;;;;;;5055806;28;20221;-79
2022/07/14 05:44:40;;;;;;;3.27;2.10;;;23.70;61.50;;;;;;5062248;28;20218;-80
2022/07/14 05:47:09;;;;;;;2.67;1.83;;;24.10;60.90;;;;;;5058033;28;20206;-80
2022/07/14 05:49:42;;;;;;;3.47;1.90;;;24.30;60.10;;;;;;5059067;28;20234;-80
2022/07/14 05:52:11;;;;;;;2.30;2.10;;;24.50;59.40;;;;;;5075584;28;20220;-79
2022/07/14 05:54:39;;;;;;;4.40;1.53;;;24.60;58.80;;;;;;5079007;28;20198;-80
2022/07/14 05:57:09;;;;;;;4.33;1.50;;;24.80;58.30;;;;;;5062363;28;20271;-80
2022/07/14 05:59:37;;;;;;;4.83;1.63;;;25.00;58.40;;;;;;5061834;28;20214;-80
2022/07/14 06:02:14;;;;;;;4.70;1.60;;;25.20;57.40;;;;;;5063084;28;20212;-80
2022/07/14 06:04:42;;;;;;;2.63;1.80;;;25.40;57.00;;;;;;5058451;28;20219;-80
2022/07/14 06:07:10;;;;;;;4.40;2.03;;;25.50;56.80;;;;;;5065184;28;20209;-82
2022/07/14 06:09:42;;;;;;;6.33;2.20;;;25.60;56.50;;;;;;5058293;28;20223;-82
2022/07/14 06:12:13;;;;;;;2.63;1.67;;;25.80;56.30;;;;;;5070792;28;20228;-82
2022/07/14 06:14:43;;;;;;;5.20;1.70;;;25.90;55.40;;;;;;5074788;28;20206;-82
2022/07/14 06:17:11;;;;;;;7.93;1.73;;;26.00;55.00;;;;;;5079555;28;20203;-82
2022/07/14 06:19:39;;;;;;;3.93;1.73;;;26.10;54.70;;;;;;5043172;28;20206;-82
2022/07/14 06:22:08;;;;;;;5.87;2.23;;;26.10;55.00;;;;;;5065244;28;20205;-82
2022/07/14 06:24:38;;;;;;;8.00;2.13;;;26.20;54.80;;;;;;5069143;28;20291;-82
2022/07/14 06:27:14;;;;;;;7.03;1.77;;;26.40;55.20;;;;;;5057721;28;20215;-82
2022/07/14 06:29:42;;;;;;;5.13;1.73;;;26.50;54.90;;;;;;5064119;28;20557;-82
2022/07/14 06:32:10;;;;;;;3.80;1.80;;;26.70;54.90;;;;;;5070609;28;20202;-82
2022/07/14 06:34:38;;;;;;;3.97;1.70;;;26.80;54.60;;;;;;5075723;28;20213;-82
2022/07/14 06:37:25;;;;;;;3.77;1.80;;;26.90;54.30;;;;;;5051963;28;20198;-82
2022/07/14 06:39:52;;;;;;;5.73;2.00;;;27.10;53.50;;;;;;5068533;28;20206;-82
2022/07/14 06:42:20;;;;;;;2.00;1.53;;;27.30;52.00;;;;;;5050522;28;20249;-82
2022/07/14 06:45:11;;;;;;;4.10;1.80;;;27.40;51.30;;;;;;5047260;28;20275;-82
2022/07/14 06:47:39;;;;;;;9.10;2.03;;;27.60;50.80;;;;;;5073990;28;20210;-82
2022/07/14 06:50:08;;;;;;;5.97;2.20;;;27.60;50.40;;;;;;5052672;28;20224;-82
2022/07/14 06:52:35;;;;;;;7.67;2.40;;;27.70;50.70;;;;;;5058536;28;20212;-82
2022/07/14 06:55:04;;;;;;;3.17;2.00;;;27.80;50.60;;;;;;5069491;28;20206;-82
2022/07/14 06:57:31;;;;;;;3.80;2.33;;;27.90;50.50;;;;;;5075331;28;20598;-82
2022/07/14 07:00:03;;;;;;;6.87;2.17;;;28.00;50.90;;;;;;5072828;28;20201;-82
2022/07/14 07:02:31;;;;;;;6.37;2.53;;;28.10;50.80;;;;;;5055044;28;20302;-82
2022/07/14 07:07:45;;;;;;;4.37;2.17;;;28.40;50.10;;;;;;5065489;28;20216;-83
2022/07/14 07:10:12;;;;;;;2.97;2.53;;;28.50;49.70;;;;;;5074422;28;20645;-82
2022/07/14 07:12:39;;;;;;;4.80;2.43;;;28.60;49.10;;;;;;5052768;28;20201;-82
2022/07/14 07:15:08;;;;;;;6.07;2.50;;;28.70;49.00;;;;;;5072224;28;20232;-82
2022/07/14 07:17:35;;;;;;;5.13;2.10;;;28.80;48.20;;;;;;5072063;28;20197;-83
2022/07/14 07:20:03;;;;;;;5.03;2.00;;;28.90;48.10;;;;;;5070898;28;20210;-82
2022/07/14 07:22:30;;;;;;;6.43;2.47;;;29.00;47.90;;;;;;5057931;28;20240;-82
2022/07/14 07:24:57;;;;;;;2.47;1.87;;;29.10;47.60;;;;;;5044991;28;20225;-82
2022/07/14 07:27:25;;;;;;;5.93;2.13;;;29.20;47.80;;;;;;5067003;28;20195;-82
2022/07/14 07:29:53;;;;;;;3.10;1.80;;;29.40;47.90;;;;;;5071164;28;20608;-82
2022/07/14 07:32:20;;;;;;;6.73;2.27;;;29.50;46.70;;;;;;5075420;28;20225;-82
2022/07/14 07:34:47;;;;;;;7.17;2.60;;;29.70;46.50;;;;;;5074323;28;20272;-82
2022/07/14 07:37:15;;;;;;;7.80;2.30;;;29.80;46.10;;;;;;5067434;28;20207;-82
2022/07/14 07:39:55;;;;;;;4.30;1.97;;;29.90;45.50;;;;;;5069046;28;20618;-82
2022/07/14 07:42:23;;;;;;;8.30;2.57;;;30.00;45.80;;;;;;5073856;28;20206;-82
2022/07/14 07:44:50;;;;;;;3.63;1.80;;;30.20;46.80;;;;;;5074024;28;20194;-81
2022/07/14 07:47:20;;;;;;;4.70;1.90;;;30.40;45.80;;;;;;5074273;28;20665;-82
2022/07/14 07:49:47;;;;;;;6.47;2.13;;;30.60;45.40;;;;;;5059525;28;20222;-82
2022/07/14 07:52:15;;;;;;;4.40;2.17;;;30.70;45.00;;;;;;5051912;28;20267;-82
2022/07/14 07:54:46;;;;;;;3.77;1.77;;;30.80;44.60;;;;;;5082158;28;20269;-81
2022/07/14 07:57:33;;;;;;;4.33;1.83;;;30.90;42.90;;;;;;5069526;28;20198;-82
2022/07/14 08:00:01;;;;;;;3.47;1.70;;;31.00;43.50;;;;;;5053956;28;20213;-82
2022/07/14 08:02:49;;;;;;;6.87;1.67;;;31.10;42.00;;;;;;5082894;28;20207;-81
2022/07/14 08:05:18;;;;;;;3.30;1.80;;;31.10;41.90;;;;;;5066445;28;20625;-82
2022/07/14 08:08:10;;;;;;;5.13;1.70;;;31.30;41.00;;;;;;5071386;28;20210;-82
2022/07/14 08:10:38;;;;;;;2.73;1.47;;;31.50;41.40;;;;;;5066411;28;20638;-83
2022/07/14 08:13:07;;;;;;;5.83;1.83;;;31.60;41.40;;;;;;5060023;28;20210;-83
2022/07/14 08:15:35;;;;;;;2.07;1.60;;;31.70;40.10;;;;;;5056929;28;20225;-82
2022/07/14 08:18:03;;;;;;;3.73;1.60;;;31.70;40.30;;;;;;5058057;28;20205;-82
2022/07/14 08:20:31;;;;;;;5.67;1.90;;;31.70;40.80;;;;;;5063320;28;20260;-82
2022/07/14 08:22:59;;;;;;;3.60;1.50;;;31.90;39.10;;;;;;5062207;28;20653;-82
2022/07/14 08:25:27;;;;;;;4.67;1.43;;;31.90;39.50;;;;;;5072606;28;20249;-82
2022/07/14 08:27:55;;;;;;;1.27;1.23;;;32.10;38.70;;;;;;5066399;28;20273;-82
2022/07/14 08:30:22;;;;;;;2.63;1.60;;;32.30;38.60;;;;;;5068717;28;20210;-82
2022/07/14 08:32:51;;;;;;;2.43;1.80;;;32.50;38.80;;;;;;5049585;28;20198;-83
2022/07/14 08:35:23;;;;;;;4.83;1.83;;;32.70;39.00;;;;;;5063253;28;20269;-82
2022/07/14 08:37:52;;;;;;;2.57;1.50;;;32.80;38.80;;;;;;5072978;28;20256;-81
2022/07/14 08:40:22;;;;;;;6.47;1.40;;;32.90;37.90;;;;;;5078000;28;20279;-82
2022/07/14 08:42:53;;;;;;;2.23;1.40;;;32.90;37.10;;;;;;5078900;28;20214;-81
2022/07/14 08:45:26;;;;;;;3.23;1.47;;;33.00;35.60;;;;;;5078491;28;20205;-82
2022/07/14 08:47:54;;;;;;;7.43;1.13;;;33.00;36.80;;;;;;5080010;28;20194;-82
2022/07/14 08:50:23;;;;;;;1.50;1.40;;;33.20;38.00;;;;;;5064511;28;20282;-82
2022/07/14 08:52:52;;;;;;;2.47;1.10;;;33.30;36.60;;;;;;5072569;28;20206;-82
2022/07/14 08:55:20;;;;;;;4.30;1.93;;;33.50;37.00;;;;;;5078304;28;20262;-82
2022/07/14 08:57:47;;;;;;;1.90;1.20;;;33.60;35.10;;;;;;5072987;28;20748;-82
2022/07/14 09:00:17;;;;;;;1.57;1.47;;;33.60;35.30;;;;;;5075065;28;20217;-81
2022/07/14 09:02:55;;;;;;;6.40;1.63;;;33.60;32.10;;;;;;5077228;28;20230;-82
2022/07/14 09:05:41;;;;;;;6.00;1.57;;;33.60;33.80;;;;;;5076080;28;20204;-82
2022/07/14 09:08:11;;;;;;;2.83;1.90;;;33.50;34.30;;;;;;5058985;28;20218;-82
2022/07/14 09:10:40;;;;;;;4.00;1.70;;;33.60;35.10;;;;;;5072805;28;20601;-79
2022/07/14 09:13:31;;;;;;;3.93;1.37;;;33.70;34.60;;;;;;5063002;28;20209;-82
2022/07/14 09:16:19;;;;;;;2.40;1.40;;;33.80;33.50;;;;;;5067583;28;20211;-82
2022/07/14 09:19:07;;;;;;;3.33;1.53;;;33.90;33.90;;;;;;5074833;28;20267;-81
2022/07/14 09:21:37;;;;;;;3.97;1.40;;;34.00;32.80;;;;;;5062572;28;20525;-83
2022/07/14 09:24:09;;;;;;;4.60;1.37;;;34.20;32.70;;;;;;5077176;28;20544;-82
2022/07/14 09:26:51;;;;;;;5.97;1.57;;;34.30;31.90;;;;;;5072685;28;20307;-82
2022/07/14 09:29:26;;;;;;;7.20;1.47;;;34.60;30.90;;;;;;5087210;28;20229;-82
2022/07/14 09:31:57;;;;;;;4.73;1.43;;;34.90;31.00;;;;;;5074949;28;20194;-82
2022/07/14 09:34:32;;;;;;;1.53;1.10;;;35.00;30.40;;;;;;5078569;28;20198;-83
2022/07/14 09:37:12;;;;;;;3.77;1.20;;;35.20;28.40;;;;;;5052879;28;20265;-83
2022/07/14 09:39:58;;;;;;;2.63;1.53;;;35.30;28.80;;;;;;5077781;28;20255;-83
2022/07/14 09:42:50;;;;;;;2.40;1.20;;;35.40;29.50;;;;;;5059416;28;20208;-82
2022/07/14 09:45:20;;;;;;;1.30;1.20;;;35.60;29.50;;;;;;5073760;28;20217;-82
2022/07/14 09:48:03;;;;;;;5.30;1.20;;;35.70;28.90;;;;;;5076682;28;20281;-84
2022/07/14 09:50:48;;;;;;;4.87;1.37;;;35.80;29.20;;;;;;5073712;28;20275;-83
2022/07/14 09:53:24;;;;;;;1.77;1.00;;;36.00;29.40;;;;;;5073122;28;20194;-83
2022/07/14 09:56:03;;;;;;;1.10;1.00;;;36.10;28.90;;;;;;5076392;28;20217;-82
2022/07/14 09:58:46;;;;;;;2.92;1.10;;;36.20;28.00;;;;;;5070305;28;20744;-83
2022/07/14 10:01:18;;;;;;;1.90;1.10;;;36.20;26.70;;;;;;5053609;28;20201;-82
2022/07/14 10:03:48;;;;;;;3.17;1.10;;;36.20;27.80;;;;;;5069034;28;20208;-83
2022/07/14 10:06:17;;;;;;;1.00;0.90;;;36.20;27.40;;;;;;5070036;28;20202;-82
2022/07/14 10:09:01;;;;;;;2.58;0.82;;;36.10;27.80;;;;;;5057124;28;20344;-83
2022/07/14 10:11:29;;;;;;;4.07;1.07;;;36.00;27.80;;;;;;5077149;28;20216;-82
2022/07/14 10:13:59;;;;;;;3.27;0.90;;;36.10;27.60;;;;;;5068544;28;20190;-83
2022/07/14 10:16:34;;;;;;;1.23;0.80;;;36.20;27.30;;;;;;5075787;28;20661;-83
2022/07/14 10:19:05;;;;;;;0.70;0.70;;;36.30;26.70;;;;;;5074128;28;20332;-84
2022/07/14 10:21:41;;;;;;;1.38;0.70;;;36.30;26.10;;;;;;5070647;28;20226;-83
2022/07/14 10:24:08;;;;;;;1.43;0.70;;;36.40;25.80;;;;;;5071752;28;20202;-83
2022/07/14 10:26:37;;;;;;;0.80;0.80;;;36.40;26.20;;;;;;5074124;28;20606;-83
2022/07/14 10:29:06;;;;;;;3.00;0.67;;;36.60;25.60;;;;;;5073418;28;20250;-83
2022/07/14 10:31:59;;;;;;;1.80;0.55;;;36.70;26.20;;;;;;5060559;28;20203;-83
2022/07/14 10:34:41;;;;;;;2.23;1.00;;;36.80;25.00;;;;;;5062727;28;20209;-84
2022/07/14 10:37:26;;;;;;;2.28;0.88;;;36.90;25.40;;;;;;5074029;28;20216;-83
2022/07/14 10:40:20;;;;;;;0.73;0.73;;;36.90;25.60;;;;;;5081266;28;20194;-82
2022/07/14 10:43:12;;;;;;;0.83;0.77;;;36.90;25.20;;;;;;5073693;28;20262;-83
2022/07/14 10:45:51;;;;;;;0.70;0.70;;;36.80;25.20;;;;;;5065416;28;20208;-83
2022/07/14 10:48:33;;;;;;;0.50;0.50;;;36.70;26.00;;;;;;5050284;28;20270;-82
2022/07/14 10:51:14;;;;;;;1.23;0.60;;;36.70;24.70;;;;;;5057998;28;20236;-83
2022/07/14 10:54:16;;;;;;;1.50;0.70;;;36.70;25.60;;;;;;5071538;28;20226;-85
2022/07/14 10:57:11;;;;;;;2.40;0.80;;;36.80;26.20;;;;;;5083162;28;20599;-82
2022/07/14 10:59:40;;;;;;;2.40;0.90;;;36.80;25.70;;;;;;5065352;28;20201;-82
2022/07/14 11:02:13;;;;;;;0.97;0.70;;;36.90;26.30;;;;;;5074597;28;20198;-82
2022/07/14 11:05:07;;;;;;;3.38;0.80;;;37.00;26.70;;;;;;5075269;28;20309;-82
2022/07/14 11:07:51;;;;;;;1.67;1.00;;;37.20;26.10;;;;;;5083163;28;20205;-83
2022/07/14 11:10:21;;;;;;;0.98;0.88;;;37.20;25.10;;;;;;5069422;28;20210;-83
2022/07/14 11:13:04;;;;;;;0.93;0.77;;;37.30;25.60;;;;;;5072508;28;20215;-82
2022/07/14 11:15:51;;;;;;;1.52;0.80;;;37.30;25.70;;;;;;5075382;28;20197;-82
2022/07/14 11:18:21;;;;;;;0.90;0.80;;;37.40;26.30;;;;;;5086689;28;20207;-82
2022/07/14 11:21:13;;;;;;;0.95;0.95;;;37.50;25.90;;;;;;5055763;28;20252;-82
2022/07/14 11:23:50;;;;;;;1.05;0.80;;;37.60;26.00;;;;;;5072907;28;20220;-82
2022/07/14 11:26:46;;;;;;;1.45;0.90;;;37.80;25.90;;;;;;5050446;28;20248;-81
2022/07/14 11:29:31;;;;;;;0.95;0.82;;;37.90;25.80;;;;;;5065642;28;20293;-81
2022/07/14 11:31:59;;;;;;;1.42;0.77;;;38.00;25.90;;;;;;5065836;28;20218;-82
2022/07/14 11:38:20;;;;;;;1.45;0.82;;;38.10;25.30;;;;;;5066690;28;20276;-82
2022/07/14 11:40:49;;;;;;;1.52;0.80;;;38.00;25.40;;;;;;5066375;28;20561;-82
2022/07/14 11:43:28;;;;;;;1.55;1.02;;;38.00;25.40;;;;;;5072916;28;20712;-82
2022/07/14 11:45:58;;;;;;;1.02;0.80;;;38.00;25.00;;;;;;5067077;28;20240;-81
2022/07/14 11:48:31;;;;;;;2.42;0.77;;;38.00;24.80;;;;;;5065817;28;20316;-82
2022/07/14 11:51:10;;;;;;;2.33;1.00;;;37.90;25.30;;;;;;5075641;28;20538;-81
2022/07/14 11:53:41;;;;;;;2.30;0.90;;;37.90;25.50;;;;;;5072507;28;20198;-83
2022/07/14 11:56:09;;;;;;;0.80;0.80;;;37.90;25.50;;;;;;5075458;28;20194;-82
2022/07/14 11:58:42;;;;;;;1.48;0.85;;;37.90;26.30;;;;;;5073901;28;20222;-83
2022/07/14 12:01:09;;;;;;;5.50;0.80;;;38.00;26.10;;;;;;5073592;28;20251;-82
2022/07/14 12:03:37;;;;;;;1.23;1.10;;;38.00;25.90;;;;;;5075139;28;20224;-82
2022/07/14 12:06:04;;;;;;;3.28;0.85;;;38.00;25.50;;;;;;5073997;28;20205;-82
2022/07/14 12:08:35;;;;;;;0.80;0.80;;;38.00;25.20;;;;;;5064940;28;20300;-82
2022/07/14 12:11:08;;;;;;;1.55;1.05;;;37.90;25.40;;;;;;5064248;28;20304;-81
2022/07/14 12:13:53;;;;;;;2.63;1.17;;;37.90;26.10;;;;;;5070069;28;20273;-82
2022/07/14 12:16:22;;;;;;;1.67;0.80;;;37.90;26.00;;;;;;5062890;28;20255;-82
2022/07/14 12:18:54;;;;;;;1.35;0.90;;;37.90;25.60;;;;;;5066752;28;20198;-82
2022/07/14 12:21:35;;;;;;;2.03;1.00;;;37.90;25.90;;;;;;5078658;28;20216;-82
2022/07/14 12:24:05;;;;;;;1.00;0.90;;;37.90;26.10;;;;;;5068718;28;20335;-82
2022/07/14 12:26:34;;;;;;;1.48;0.90;;;37.90;26.00;;;;;;5074790;28;20341;-82
2022/07/14 12:29:04;;;;;;;0.98;0.82;;;37.90;26.60;;;;;;5068558;28;20209;-81
2022/07/14 12:31:39;;;;;;;2.30;0.70;;;37.90;26.50;;;;;;5074008;28;20229;-81
2022/07/14 12:34:10;;;;;;;4.60;1.08;;;38.00;26.60;;;;;;5071165;28;20206;-82
2022/07/14 12:36:37;;;;;;;1.58;0.65;;;38.10;26.40;;;;;;5069443;28;20202;-81
2022/07/14 12:39:07;;;;;;;1.35;0.77;;;38.20;26.30;;;;;;5069474;28;20208;-82
2022/07/14 12:41:34;;;;;;;1.00;0.90;;;38.20;26.60;;;;;;5061853;28;20805;-82
2022/07/14 12:44:11;;;;;;;5.57;0.95;;;38.30;25.30;;;;;;5067343;28;20206;-82
2022/07/14 12:46:38;;;;;;;1.55;1.02;;;38.20;25.70;;;;;;5060817;28;20323;-81
2022/07/14 12:49:07;;;;;;;3.20;1.00;;;38.00;26.10;;;;;;5075314;28;20222;-82
2022/07/14 12:51:39;;;;;;;2.85;1.00;;;38.10;26.30;;;;;;5070583;28;20210;-82
2022/07/14 12:54:19;;;;;;;1.02;0.80;;;38.10;26.40;;;;;;5059654;28;20261;-82
2022/07/14 12:57:17;;;;;;;1.73;1.00;;;38.20;26.40;;;;;;5087463;28;20255;-82
2022/07/14 12:59:46;;;;;;;3.00;1.30;;;38.20;26.10;;;;;;5065932;28;20208;-82
2022/07/14 13:02:23;;;;;;;1.55;0.88;;;38.20;26.10;;;;;;5078155;28;20227;-81
2022/07/14 13:05:01;;;;;;;4.82;1.05;;;38.20;26.10;;;;;;5075699;28;20194;-81
2022/07/14 13:07:32;;;;;;;1.20;0.93;;;38.10;26.50;;;;;;5056687;28;20201;-81
2022/07/14 13:10:17;;;;;;;3.58;1.23;;;38.10;26.80;;;;;;5074916;28;20242;-81
2022/07/14 13:12:51;;;;;;;1.25;1.15;;;38.20;26.30;;;;;;5072878;28;20255;-82
2022/07/14 13:15:21;;;;;;;1.42;1.33;;;38.20;26.80;;;;;;5072508;28;20202;-82
2022/07/14 13:17:56;;;;;;;1.35;1.25;;;38.10;26.40;;;;;;5061166;28;20649;-82
2022/07/14 13:23:33;;;;;;;3.10;1.45;;;37.90;26.70;;;;;;5063496;28;20213;-82
2022/07/14 13:26:13;;;;;;;3.22;1.25;;;37.80;26.80;;;;;;5071902;28;20268;-81
2022/07/14 13:28:44;;;;;;;1.33;1.20;;;37.70;27.10;;;;;;5064536;28;20217;-82